AAL104 KATL-KDFW
Flight info
| Callsign | AAL104 |
|---|---|
| Flight time | N/A |
| Altitude | 32000 |
| Route | KAJIN2 STNGA MLU YUYUN WHINY4 |
| Aircraft | A21N/M-SDE2E3FGHIRWXY/LB1 |
Departure
| Time | 2026-05-01 14:25 |
|---|---|
| Airport | Hartsfield Jackson Atlanta International Airport (KATL) |
Arrival
| Time | N/A |
|---|---|
| Airport | Dallas Fort Worth International Airport (KDFW) |
| Time | Latitude | Longitude | Altitude | Speed | Heading |
|---|---|---|---|---|---|
| 2026-05-01 13:39 | 33.64304 | -84.44192 | 1012 ft | 0 kts | 285° |
| 2026-05-01 14:14 | 33.64302 | -84.44185 | 1012 ft | 4 kts | 265° |
| 2026-05-01 14:14 | 33.64297 | -84.44163 | 1012 ft | 4 kts | 293° |
| 2026-05-01 14:14 | 33.64283 | -84.44136 | 1012 ft | 4 kts | 315° |
| 2026-05-01 14:14 | 33.64262 | -84.44119 | 1012 ft | 4 kts | 347° |
| 2026-05-01 14:15 | 33.64247 | -84.44117 | 1012 ft | 1 kts | 0° |
| 2026-05-01 14:15 | 33.64246 | -84.44117 | 1012 ft | 0 kts | 0° |
| 2026-05-01 14:19 | 33.64262 | -84.44117 | 1012 ft | 7 kts | 0° |
| 2026-05-01 14:20 | 33.64320 | -84.44117 | 1012 ft | 9 kts | 0° |
| 2026-05-01 14:20 | 33.64471 | -84.44087 | 1012 ft | 14 kts | 47° |
| 2026-05-01 14:20 | 33.64506 | -84.43975 | 1013 ft | 16 kts | 82° |
| 2026-05-01 14:21 | 33.64520 | -84.43871 | 1014 ft | 11 kts | 68° |
| 2026-05-01 14:21 | 33.64565 | -84.43827 | 1017 ft | 3 kts | 9° |
| 2026-05-01 14:21 | 33.64568 | -84.43827 | 1017 ft | 0 kts | 9° |
| 2026-05-01 14:23 | 33.64573 | -84.43826 | 1017 ft | 2 kts | 6° |
| 2026-05-01 14:23 | 33.64604 | -84.43823 | 1020 ft | 6 kts | 2° |
| 2026-05-01 14:24 | 33.64661 | -84.43818 | 1022 ft | 10 kts | 25° |
| 2026-05-01 14:24 | 33.64681 | -84.43734 | 1026 ft | 12 kts | 88° |
| 2026-05-01 14:24 | 33.64679 | -84.43525 | 1027 ft | 55 kts | 91° |
| 2026-05-01 14:24 | 33.64682 | -84.42818 | 1042 ft | 115 kts | 90° |
| 2026-05-01 14:25 | 33.64679 | -84.42016 | 1040 ft | 167 kts | 89° |
| 2026-05-01 14:25 | 33.64683 | -84.40478 | 1443 ft | 200 kts | 90° |
| 2026-05-01 14:25 | 33.64670 | -84.38686 | 1996 ft | 231 kts | 90° |
| 2026-05-01 14:25 | 33.64955 | -84.36682 | 2429 ft | 248 kts | 68° |
| 2026-05-01 14:26 | 33.65849 | -84.34888 | 2741 ft | 251 kts | 54° |
| 2026-05-01 14:26 | 33.67265 | -84.31145 | 3250 ft | 251 kts | 75° |
| 2026-05-01 14:26 | 33.68041 | -84.29289 | 3445 ft | 253 kts | 48° |
| 2026-05-01 14:27 | 33.69539 | -84.28215 | 3841 ft | 258 kts | 17° |
| 2026-05-01 14:27 | 33.71335 | -84.27932 | 4306 ft | 264 kts | 2° |
| 2026-05-01 14:27 | 33.73187 | -84.27966 | 4749 ft | 268 kts | 0° |
| 2026-05-01 14:28 | 33.76965 | -84.27986 | 5408 ft | 274 kts | 360° |
| 2026-05-01 14:28 | 33.78844 | -84.28405 | 5717 ft | 278 kts | 336° |
| 2026-05-01 14:28 | 33.80431 | -84.29704 | 5915 ft | 278 kts | 311° |
| 2026-05-01 14:28 | 33.81371 | -84.31705 | 6197 ft | 277 kts | 284° |
| 2026-05-01 14:29 | 33.81561 | -84.33988 | 6514 ft | 274 kts | 268° |
| 2026-05-01 14:29 | 33.81491 | -84.36291 | 6962 ft | 276 kts | 267° |
| 2026-05-01 14:30 | 33.81418 | -84.43173 | 7988 ft | 276 kts | 269° |
| 2026-05-01 14:30 | 33.81427 | -84.45517 | 8311 ft | 276 kts | 269° |
| 2026-05-01 14:30 | 33.81438 | -84.47795 | 8633 ft | 276 kts | 270° |
| 2026-05-01 14:31 | 33.81375 | -84.52418 | 9280 ft | 277 kts | 260° |
| 2026-05-01 14:31 | 33.80781 | -84.54617 | 9603 ft | 277 kts | 247° |
| 2026-05-01 14:31 | 33.79974 | -84.56721 | 9924 ft | 278 kts | 246° |
| 2026-05-01 14:31 | 33.79157 | -84.58829 | 10028 ft | 277 kts | 246° |
| 2026-05-01 14:32 | 33.78350 | -84.60935 | 10035 ft | 277 kts | 246° |
| 2026-05-01 14:32 | 33.77547 | -84.63045 | 10023 ft | 277 kts | 246° |
| 2026-05-01 14:32 | 33.76749 | -84.65155 | 10022 ft | 277 kts | 246° |
| 2026-05-01 14:32 | 33.75950 | -84.67269 | 10010 ft | 277 kts | 247° |
| 2026-05-01 14:33 | 33.75153 | -84.69376 | 10007 ft | 277 kts | 247° |
| 2026-05-01 14:33 | 33.74355 | -84.71487 | 10012 ft | 277 kts | 247° |
| 2026-05-01 14:33 | 33.73558 | -84.73596 | 10006 ft | 277 kts | 247° |
| 2026-05-01 14:33 | 33.72761 | -84.75704 | 10017 ft | 277 kts | 247° |
| 2026-05-01 14:34 | 33.71972 | -84.77786 | 10021 ft | 277 kts | 246° |
| 2026-05-01 14:34 | 33.71173 | -84.79897 | 10019 ft | 277 kts | 247° |
| 2026-05-01 14:34 | 33.70373 | -84.82006 | 10018 ft | 277 kts | 246° |
| 2026-05-01 14:34 | 33.69571 | -84.84110 | 10017 ft | 277 kts | 247° |
| 2026-05-01 14:35 | 33.68771 | -84.86222 | 10021 ft | 277 kts | 246° |
| 2026-05-01 14:35 | 33.67969 | -84.88326 | 10021 ft | 277 kts | 247° |
| 2026-05-01 14:35 | 33.67163 | -84.90440 | 10029 ft | 278 kts | 247° |
| 2026-05-01 14:35 | 33.66361 | -84.92546 | 10030 ft | 278 kts | 246° |
| 2026-05-01 14:36 | 33.65556 | -84.94653 | 10028 ft | 277 kts | 246° |
| 2026-05-01 14:36 | 33.64751 | -84.96763 | 10036 ft | 277 kts | 247° |
| 2026-05-01 14:36 | 33.63952 | -84.98861 | 10037 ft | 277 kts | 247° |
| 2026-05-01 14:36 | 33.63151 | -85.00959 | 10039 ft | 277 kts | 247° |
| 2026-05-01 14:37 | 33.62350 | -85.03060 | 10039 ft | 277 kts | 247° |
| 2026-05-01 14:37 | 33.61551 | -85.05160 | 10040 ft | 277 kts | 247° |
| 2026-05-01 14:37 | 33.60748 | -85.07261 | 10044 ft | 277 kts | 247° |
| 2026-05-01 14:37 | 33.59945 | -85.09359 | 10050 ft | 277 kts | 247° |
| 2026-05-01 14:38 | 33.59142 | -85.11455 | 10051 ft | 277 kts | 247° |
| 2026-05-01 14:38 | 33.58341 | -85.13555 | 10049 ft | 277 kts | 247° |
| 2026-05-01 14:38 | 33.57540 | -85.15652 | 10050 ft | 277 kts | 247° |
| 2026-05-01 14:38 | 33.56732 | -85.17752 | 10049 ft | 277 kts | 246° |
| 2026-05-01 14:39 | 33.55936 | -85.19830 | 10052 ft | 278 kts | 247° |
| 2026-05-01 14:39 | 33.55143 | -85.21939 | 10049 ft | 278 kts | 249° |
| 2026-05-01 14:39 | 33.54585 | -85.24151 | 10051 ft | 277 kts | 258° |
| 2026-05-01 14:39 | 33.54173 | -85.26403 | 10050 ft | 276 kts | 258° |
| 2026-05-01 14:40 | 33.53771 | -85.28655 | 10048 ft | 277 kts | 258° |
| 2026-05-01 14:40 | 33.53362 | -85.30914 | 10039 ft | 277 kts | 258° |
| 2026-05-01 14:40 | 33.52952 | -85.33165 | 10039 ft | 277 kts | 258° |
| 2026-05-01 14:40 | 33.52540 | -85.35416 | 10041 ft | 277 kts | 258° |
| 2026-05-01 14:41 | 33.52126 | -85.37668 | 10046 ft | 278 kts | 258° |
| 2026-05-01 14:41 | 33.51682 | -85.40060 | 10236 ft | 309 kts | 258° |
| 2026-05-01 14:41 | 33.51191 | -85.42690 | 10507 ft | 336 kts | 258° |
| 2026-05-01 14:41 | 33.50665 | -85.45515 | 10787 ft | 358 kts | 258° |
| 2026-05-01 14:42 | 33.50107 | -85.48512 | 11108 ft | 376 kts | 258° |
| 2026-05-01 14:42 | 33.49531 | -85.51600 | 11726 ft | 382 kts | 258° |
| 2026-05-01 14:42 | 33.48947 | -85.54712 | 12468 ft | 384 kts | 258° |
| 2026-05-01 14:42 | 33.48367 | -85.57832 | 13276 ft | 384 kts | 258° |
| 2026-05-01 14:43 | 33.47783 | -85.60950 | 14045 ft | 384 kts | 258° |
| 2026-05-01 14:43 | 33.47199 | -85.64072 | 14739 ft | 385 kts | 258° |
| 2026-05-01 14:43 | 33.46614 | -85.67199 | 15489 ft | 385 kts | 258° |
| 2026-05-01 14:43 | 33.46027 | -85.70331 | 16156 ft | 385 kts | 259° |
| 2026-05-01 14:44 | 33.45442 | -85.73454 | 16755 ft | 384 kts | 259° |
| 2026-05-01 14:44 | 33.44258 | -85.79708 | 17904 ft | 385 kts | 259° |
| 2026-05-01 14:44 | 33.43664 | -85.82837 | 18475 ft | 386 kts | 259° |
| 2026-05-01 14:45 | 33.43074 | -85.85971 | 19045 ft | 387 kts | 259° |
| 2026-05-01 14:45 | 33.41879 | -85.92284 | 20146 ft | 391 kts | 259° |
| 2026-05-01 14:45 | 33.41272 | -85.95474 | 20689 ft | 393 kts | 258° |
| 2026-05-01 14:46 | 33.40660 | -85.98676 | 21327 ft | 396 kts | 258° |
| 2026-05-01 14:46 | 33.39430 | -86.05121 | 22520 ft | 402 kts | 258° |
| 2026-05-01 14:46 | 33.38810 | -86.08384 | 23075 ft | 403 kts | 258° |
| 2026-05-01 14:47 | 33.38180 | -86.11660 | 23601 ft | 404 kts | 258° |
| 2026-05-01 14:47 | 33.37546 | -86.14940 | 24133 ft | 404 kts | 258° |
| 2026-05-01 14:47 | 33.36914 | -86.18217 | 24647 ft | 404 kts | 258° |
| 2026-05-01 14:48 | 33.35665 | -86.24719 | 25915 ft | 397 kts | 258° |
| 2026-05-01 14:48 | 33.35049 | -86.27920 | 26586 ft | 392 kts | 258° |
| 2026-05-01 14:48 | 33.33835 | -86.34208 | 27858 ft | 384 kts | 259° |
| 2026-05-01 14:49 | 33.32637 | -86.40376 | 29037 ft | 377 kts | 258° |
| 2026-05-01 14:49 | 33.31455 | -86.46446 | 30085 ft | 373 kts | 259° |
| 2026-05-01 14:50 | 33.30666 | -86.50475 | 30714 ft | 371 kts | 259° |
| 2026-05-01 14:50 | 33.29103 | -86.58426 | 31894 ft | 367 kts | 259° |
| 2026-05-01 14:51 | 33.28527 | -86.61392 | 32035 ft | 365 kts | 259° |
| 2026-05-01 14:51 | 33.27384 | -86.67276 | 32042 ft | 363 kts | 259° |
| 2026-05-01 14:52 | 33.25646 | -86.76089 | 32033 ft | 363 kts | 259° |
| 2026-05-01 14:53 | 33.23897 | -86.84864 | 32033 ft | 363 kts | 259° |
| 2026-05-01 14:53 | 33.22727 | -86.90742 | 32030 ft | 364 kts | 259° |
| 2026-05-01 14:54 | 33.21565 | -86.96626 | 32030 ft | 363 kts | 259° |
| 2026-05-01 14:54 | 33.20389 | -87.02508 | 32031 ft | 364 kts | 259° |
| 2026-05-01 14:55 | 33.19211 | -87.08371 | 32029 ft | 363 kts | 258° |
| 2026-05-01 14:55 | 33.18034 | -87.14228 | 32032 ft | 363 kts | 259° |
| 2026-05-01 14:56 | 33.16862 | -87.20055 | 32039 ft | 363 kts | 259° |
| 2026-05-01 14:56 | 33.15692 | -87.25914 | 32040 ft | 363 kts | 259° |
| 2026-05-01 14:57 | 33.14509 | -87.31771 | 32041 ft | 363 kts | 258° |
| 2026-05-01 14:57 | 33.12724 | -87.40554 | 32044 ft | 363 kts | 258° |
| 2026-05-01 14:58 | 33.11628 | -87.46441 | 32057 ft | 363 kts | 262° |
| 2026-05-01 14:58 | 33.10948 | -87.52409 | 32061 ft | 363 kts | 263° |
| 2026-05-01 14:59 | 33.10281 | -87.58374 | 32060 ft | 363 kts | 263° |
| 2026-05-01 14:59 | 33.09604 | -87.64342 | 32060 ft | 363 kts | 263° |
| 2026-05-01 15:00 | 33.08593 | -87.73254 | 32061 ft | 363 kts | 263° |
| 2026-05-01 15:01 | 33.07901 | -87.79215 | 32061 ft | 363 kts | 263° |
| 2026-05-01 15:01 | 33.07215 | -87.85175 | 32060 ft | 363 kts | 263° |
| 2026-05-01 15:02 | 33.06525 | -87.91135 | 32061 ft | 363 kts | 263° |
| 2026-05-01 15:02 | 33.05827 | -87.97102 | 32060 ft | 363 kts | 263° |
| 2026-05-01 15:03 | 33.05132 | -88.03068 | 32060 ft | 363 kts | 262° |
| 2026-05-01 15:03 | 33.04442 | -88.09023 | 32060 ft | 363 kts | 262° |
| 2026-05-01 15:04 | 33.03860 | -88.13982 | 32060 ft | 363 kts | 262° |
| 2026-05-01 15:04 | 33.03153 | -88.19958 | 32061 ft | 364 kts | 262° |
| 2026-05-01 15:05 | 33.02447 | -88.25924 | 32060 ft | 364 kts | 262° |
| 2026-05-01 15:05 | 33.01735 | -88.31893 | 32060 ft | 364 kts | 262° |
| 2026-05-01 15:06 | 33.01023 | -88.37860 | 32061 ft | 364 kts | 262° |
| 2026-05-01 15:06 | 33.00303 | -88.43835 | 32069 ft | 365 kts | 262° |
| 2026-05-01 15:07 | 32.99581 | -88.49813 | 32072 ft | 365 kts | 262° |
| 2026-05-01 15:07 | 32.98854 | -88.55791 | 32070 ft | 365 kts | 262° |
| 2026-05-01 15:08 | 32.98131 | -88.61731 | 32070 ft | 365 kts | 262° |
| 2026-05-01 15:08 | 32.97405 | -88.67718 | 32078 ft | 365 kts | 262° |
| 2026-05-01 15:09 | 32.96673 | -88.73707 | 32082 ft | 366 kts | 262° |
| 2026-05-01 15:09 | 32.95934 | -88.79705 | 32082 ft | 366 kts | 262° |
| 2026-05-01 15:10 | 32.95192 | -88.85694 | 32077 ft | 366 kts | 262° |
| 2026-05-01 15:10 | 32.94079 | -88.94677 | 32071 ft | 366 kts | 262° |
| 2026-05-01 15:11 | 32.92955 | -89.03667 | 32070 ft | 366 kts | 262° |
| 2026-05-01 15:12 | 32.92202 | -89.09653 | 32061 ft | 366 kts | 262° |
| 2026-05-01 15:12 | 32.91069 | -89.18653 | 32059 ft | 367 kts | 261° |
| 2026-05-01 15:14 | 32.89161 | -89.33703 | 32069 ft | 371 kts | 261° |
| 2026-05-01 15:14 | 32.87994 | -89.42824 | 32070 ft | 372 kts | 261° |
| 2026-05-01 15:15 | 32.86426 | -89.55012 | 32070 ft | 372 kts | 260° |
| 2026-05-01 15:16 | 32.84849 | -89.67200 | 32080 ft | 373 kts | 260° |
| 2026-05-01 15:18 | 32.82858 | -89.82456 | 32080 ft | 373 kts | 260° |
| 2026-05-01 15:19 | 32.81246 | -89.94679 | 32081 ft | 374 kts | 260° |
| 2026-05-01 15:19 | 32.80029 | -90.03810 | 32080 ft | 374 kts | 260° |
| 2026-05-01 15:20 | 32.78798 | -90.12998 | 32082 ft | 375 kts | 260° |
| 2026-05-01 15:21 | 32.77975 | -90.19128 | 32089 ft | 375 kts | 260° |
| 2026-05-01 15:21 | 32.77149 | -90.25248 | 32091 ft | 375 kts | 259° |
| 2026-05-01 15:22 | 32.75900 | -90.34441 | 32089 ft | 375 kts | 259° |
| 2026-05-01 15:22 | 32.75071 | -90.40526 | 32089 ft | 375 kts | 259° |
| 2026-05-01 15:23 | 32.74234 | -90.46650 | 32087 ft | 375 kts | 259° |
| 2026-05-01 15:23 | 32.73391 | -90.52777 | 32090 ft | 375 kts | 259° |
| 2026-05-01 15:24 | 32.72546 | -90.58897 | 32091 ft | 376 kts | 259° |
| 2026-05-01 15:24 | 32.71702 | -90.65011 | 32091 ft | 375 kts | 259° |
| 2026-05-01 15:25 | 32.70851 | -90.71127 | 32091 ft | 375 kts | 259° |
| 2026-05-01 15:25 | 32.69998 | -90.77256 | 32090 ft | 376 kts | 259° |
| 2026-05-01 15:26 | 32.69139 | -90.83388 | 32090 ft | 377 kts | 259° |
| 2026-05-01 15:26 | 32.68277 | -90.89527 | 32091 ft | 377 kts | 259° |
| 2026-05-01 15:27 | 32.67418 | -90.95620 | 32091 ft | 376 kts | 259° |
| 2026-05-01 15:28 | 32.66115 | -91.04825 | 32089 ft | 377 kts | 259° |
| 2026-05-01 15:28 | 32.65239 | -91.10973 | 32090 ft | 377 kts | 259° |
| 2026-05-01 15:29 | 32.63924 | -91.20198 | 32089 ft | 378 kts | 258° |
| 2026-05-01 15:30 | 32.62149 | -91.32527 | 32090 ft | 380 kts | 258° |
| 2026-05-01 15:31 | 32.59456 | -91.51106 | 32090 ft | 383 kts | 258° |
| 2026-05-01 15:32 | 32.57630 | -91.63574 | 32090 ft | 385 kts | 258° |
| 2026-05-01 15:34 | 32.54861 | -91.82327 | 32090 ft | 386 kts | 258° |